Time;durP1;ratioP1;P1;durP2;ratioP2;P2;SDS_P1;SDS_P2;PMS_P1;PMS_P2;Temp;Humidity;BMP_temperature;BMP_pressure;BME280_temperature;BME280_humidity;BME280_pressure;Samples;Min_cycle;Max_cycle;Signal;HPM_P1;HPM_P2
2022/12/15 00:39:30;;;;;;;12.73;7.23;;;-7.50;99.90;;;;;;5082818;28;20201;-77
2022/12/15 00:41:56;;;;;;;15.87;9.03;;;-7.50;99.90;;;;;;5094318;28;20185;-78
2022/12/15 00:44:22;;;;;;;14.23;8.60;;;-7.50;99.90;;;;;;5087698;28;20669;-79
2022/12/15 00:46:53;;;;;;;13.80;7.30;;;-7.60;93.50;;;;;;5077230;28;20169;-79
2022/12/15 01:22:23;;;;;;;13.30;7.67;;;-7.80;30.90;;;;;;5076535;28;20169;-79
2022/12/15 01:24:49;;;;;;;13.30;7.00;;;-7.80;15.40;;;;;;5057556;28;20170;-78
2022/12/15 01:27:14;;;;;;;13.37;8.00;;;-7.90;6.30;;;;;;5075444;28;20178;-79
2022/12/15 01:29:40;;;;;;;16.67;8.20;;;-7.80;33.30;;;;;;5075743;28;20259;-79
2022/12/15 01:32:05;;;;;;;13.97;7.17;;;-7.80;40.50;;;;;;5057486;28;20201;-78
2022/12/15 01:34:31;;;;;;;16.53;8.07;;;-7.80;31.10;;;;;;5057201;28;20175;-79
2022/12/15 01:36:56;;;;;;;15.53;8.30;;;-7.80;6.40;;;;;;5075844;28;20213;-79
2022/12/15 01:39:22;;;;;;;18.90;8.27;;;-7.90;1.00;;;;;;5075549;28;20198;-79
2022/12/15 01:41:47;;;;;;;12.53;7.53;;;-8.00;1.00;;;;;;5057175;28;20557;-79
2022/12/15 01:44:18;;;;;;;13.43;7.67;;;-8.00;15.50;;;;;;5074643;28;20298;-78
2022/12/15 01:46:44;;;;;;;13.43;8.60;;;-8.00;22.10;;;;;;5075981;28;20171;-78
2022/12/15 01:49:27;;;;;;;14.83;8.13;;;-8.00;18.90;;;;;;5075355;28;20225;-79
2022/12/15 01:51:57;;;;;;;11.40;7.53;;;-8.00;14.70;;;;;;5075424;28;20170;-79
2022/12/15 01:54:36;;;;;;;14.73;7.33;;;-8.00;17.70;;;;;;5074864;28;20193;-79
2022/12/15 01:57:06;;;;;;;12.53;7.60;;;-8.00;23.50;;;;;;5075168;28;20208;-80
2022/12/15 01:59:39;;;;;;;15.30;7.67;;;-8.00;44.70;;;;;;5057181;28;20205;-79
2022/12/15 02:02:05;;;;;;;13.03;7.57;;;-8.00;47.60;;;;;;5056665;28;20229;-79
2022/12/15 02:04:32;;;;;;;11.90;7.03;;;-8.00;58.60;;;;;;5074847;28;20178;-79
2022/12/15 02:06:57;;;;;;;17.13;6.73;;;-8.00;55.70;;;;;;5056845;28;20537;-78
2022/12/15 02:09:26;;;;;;;12.57;6.60;;;-8.00;65.90;;;;;;5074852;28;20277;-79
2022/12/15 02:11:51;;;;;;;12.13;7.13;;;-8.00;82.00;;;;;;5075160;28;20179;-80
2022/12/15 02:14:45;;;;;;;14.47;7.80;;;-7.90;93.90;;;;;;5074591;28;20178;-79
2022/12/15 02:17:15;;;;;;;15.57;7.47;;;-7.90;99.90;;;;;;5056433;28;20288;-78
2022/12/15 02:19:59;;;;;;;11.57;7.13;;;-7.80;99.90;;;;;;5075098;28;20186;-78
2022/12/15 02:22:38;;;;;;;16.40;7.30;;;-7.80;99.90;;;;;;5074572;28;20169;-78
2022/12/15 02:25:13;;;;;;;16.60;6.87;;;-7.80;99.90;;;;;;5056359;28;20162;-78
2022/12/15 02:27:47;;;;;;;15.57;7.30;;;-7.70;99.90;;;;;;5074699;28;20173;-77
2022/12/15 02:30:16;;;;;;;14.97;8.50;;;-7.70;99.90;;;;;;5056222;28;20678;-79
2022/12/15 02:32:46;;;;;;;11.20;6.53;;;-7.80;99.90;;;;;;5074720;28;20713;-79
2022/12/15 02:35:21;;;;;;;18.53;8.30;;;-7.80;99.90;;;;;;5056799;28;20743;-79
2022/12/15 02:37:47;;;;;;;14.53;7.47;;;-7.70;99.90;;;;;;5074674;28;20534;-79
2022/12/15 02:40:12;;;;;;;13.80;7.53;;;-7.70;99.90;;;;;;5074502;28;20194;-79
2022/12/15 02:42:43;;;;;;;15.97;7.40;;;-7.70;99.90;;;;;;5056515;28;20715;-79
2022/12/15 02:45:15;;;;;;;12.13;6.73;;;-7.60;99.90;;;;;;5075055;28;20161;-77
2022/12/15 02:47:58;;;;;;;14.57;7.43;;;-7.60;99.90;;;;;;5059365;28;20255;-79
2022/12/15 02:50:32;;;;;;;13.00;7.47;;;-7.60;99.90;;;;;;5079032;28;20594;-79
2022/12/15 02:53:08;;;;;;;17.10;7.77;;;-7.60;99.90;;;;;;5079921;28;20237;-78
2022/12/15 02:55:52;;;;;;;16.90;8.63;;;-7.60;99.90;;;;;;5062588;28;20248;-79
2022/12/15 02:59:09;;;;;;;12.77;7.87;;;-7.60;99.90;;;;;;5066581;28;20662;-79
2022/12/15 03:01:41;;;;;;;14.87;8.07;;;-7.70;99.90;;;;;;5037079;28;20190;-79
2022/12/15 03:04:09;;;;;;;15.67;8.40;;;-7.60;99.90;;;;;;5060713;28;20726;-79
2022/12/15 03:06:34;;;;;;;24.77;8.87;;;-7.60;99.90;;;;;;5078620;28;20308;-79
2022/12/15 03:09:00;;;;;;;15.23;8.57;;;-7.60;99.90;;;;;;5078760;28;20655;-79
2022/12/15 03:11:26;;;;;;;22.53;9.07;;;-7.60;99.90;;;;;;5060664;28;20307;-79
2022/12/15 03:13:53;;;;;;;12.93;8.07;;;-7.50;99.90;;;;;;5060200;28;20529;-80
2022/12/15 03:16:19;;;;;;;18.83;8.77;;;-7.60;99.90;;;;;;5078055;28;20635;-80
2022/12/15 03:18:45;;;;;;;14.53;8.57;;;-7.50;99.90;;;;;;5078406;28;20232;-79
2022/12/15 03:21:10;;;;;;;21.33;9.27;;;-7.50;99.90;;;;;;5078137;28;20249;-80
2022/12/15 03:23:36;;;;;;;22.80;9.37;;;-7.40;99.90;;;;;;5060218;28;20175;-79
2022/12/15 03:26:01;;;;;;;16.17;8.77;;;-7.40;99.90;;;;;;5060391;28;20178;-78
2022/12/15 03:28:27;;;;;;;19.20;11.00;;;-7.40;99.90;;;;;;5078192;28;20243;-80
2022/12/15 03:30:53;;;;;;;13.60;8.07;;;-7.30;99.90;;;;;;5060297;28;20175;-79
2022/12/15 03:33:18;;;;;;;18.07;9.03;;;-7.30;99.90;;;;;;5078235;28;20184;-79
2022/12/15 03:35:44;;;;;;;16.37;8.07;;;-7.30;99.90;;;;;;5078362;28;20229;-78
2022/12/15 03:38:09;;;;;;;14.57;7.57;;;-7.30;99.90;;;;;;5060543;28;20260;-80
2022/12/15 03:40:35;;;;;;;13.13;8.50;;;-7.30;99.90;;;;;;5078108;28;20202;-79
2022/12/15 03:43:00;;;;;;;14.37;8.53;;;-7.30;99.90;;;;;;5060387;28;20170;-80
2022/12/15 03:45:27;;;;;;;15.10;8.63;;;-7.40;99.90;;;;;;5078488;28;20174;-79
2022/12/15 03:47:54;;;;;;;16.10;8.57;;;-7.40;99.90;;;;;;5078586;28;20181;-81
2022/12/15 03:50:23;;;;;;;13.83;8.30;;;-7.40;99.90;;;;;;5078090;28;20262;-80
2022/12/15 03:52:54;;;;;;;19.83;8.70;;;-7.50;99.90;;;;;;5078992;28;20186;-79
2022/12/15 03:55:20;;;;;;;19.47;8.50;;;-7.50;99.90;;;;;;5091637;28;20193;-80
2022/12/15 03:57:46;;;;;;;19.80;9.10;;;-7.40;99.90;;;;;;5070697;28;20182;-79
2022/12/15 04:00:16;;;;;;;17.57;9.03;;;-7.40;99.90;;;;;;5064667;28;20205;-79
2022/12/15 04:02:42;;;;;;;17.47;9.37;;;-7.50;99.90;;;;;;5059150;28;20170;-79
2022/12/15 04:05:17;;;;;;;15.60;8.87;;;-7.40;99.90;;;;;;5077027;28;20171;-79
2022/12/15 04:07:43;;;;;;;20.77;9.80;;;-7.40;99.90;;;;;;5076934;28;20166;-79
2022/12/15 04:10:09;;;;;;;20.27;9.60;;;-7.30;99.90;;;;;;5058934;28;20202;-78
2022/12/15 04:12:34;;;;;;;18.57;8.70;;;-7.20;99.90;;;;;;5077079;28;20182;-79
2022/12/15 04:15:00;;;;;;;15.13;8.33;;;-7.20;99.90;;;;;;5058958;28;20663;-79
2022/12/15 04:17:25;;;;;;;16.63;8.60;;;-7.20;99.90;;;;;;5058930;28;20185;-79
2022/12/15 04:20:09;;;;;;;19.50;10.00;;;-7.20;99.90;;;;;;5058700;28;20209;-79
2022/12/15 04:22:43;;;;;;;14.27;7.80;;;-7.20;99.90;;;;;;5059909;28;20167;-79
2022/12/15 05:32:33;;;;;;;16.07;8.60;;;-7.10;99.90;;;;;;5058263;28;20174;-92
2022/12/15 05:35:41;;;;;;;19.03;9.43;;;-7.20;99.90;;;;;;4998404;28;20250;-93
2022/12/15 05:38:07;;;;;;;16.90;8.97;;;-7.20;99.90;;;;;;5014129;28;20224;-91
2022/12/15 05:40:41;;;;;;;21.90;9.93;;;-7.20;99.90;;;;;;4999329;28;20231;-92
2022/12/15 05:43:12;;;;;;;23.73;11.60;;;-7.00;99.90;;;;;;5014577;28;20197;-92
2022/12/15 05:45:40;;;;;;;22.33;11.07;;;-7.10;99.90;;;;;;4998748;28;20180;-92
2022/12/15 05:48:11;;;;;;;17.00;9.73;;;-6.90;99.90;;;;;;4998220;28;20273;-92
2022/12/15 05:50:37;;;;;;;24.93;11.77;;;-7.10;99.90;;;;;;5059176;28;20186;-91
2022/12/15 05:53:02;;;;;;;26.13;11.43;;;-7.00;99.90;;;;;;5055432;28;20625;-92
2022/12/15 05:55:28;;;;;;;20.53;10.63;;;-7.00;99.90;;;;;;5057913;28;20723;-91
2022/12/15 05:57:54;;;;;;;21.53;10.57;;;-7.00;99.90;;;;;;5056867;28;20178;-92
2022/12/15 06:00:21;;;;;;;19.03;9.70;;;-6.80;99.90;;;;;;5057563;28;20175;-93
2022/12/15 06:02:46;;;;;;;20.97;10.93;;;-7.00;99.90;;;;;;5060560;28;20197;-92
2022/12/15 06:05:15;;;;;;;19.10;10.83;;;-6.90;99.90;;;;;;5057344;28;20207;-92
2022/12/15 06:07:41;;;;;;;24.07;9.73;;;-6.90;99.90;;;;;;5054098;28;20266;-92
2022/12/15 06:10:08;;;;;;;31.57;11.73;;;-6.90;99.90;;;;;;5054272;28;20245;-92
2022/12/15 06:12:36;;;;;;;22.20;10.23;;;-6.90;99.90;;;;;;5053796;28;20195;-91
2022/12/15 06:15:01;;;;;;;17.20;9.60;;;-6.70;99.90;;;;;;5055209;28;20248;-91
2022/12/15 06:17:27;;;;;;;23.30;11.73;;;-6.80;99.90;;;;;;5055164;28;20271;-92
2022/12/15 06:19:53;;;;;;;25.27;11.27;;;-6.80;99.90;;;;;;5055094;28;20175;-92
2022/12/15 06:22:18;;;;;;;26.97;11.50;;;-6.70;99.90;;;;;;5054850;28;20195;-92
2022/12/15 06:24:44;;;;;;;25.73;11.77;;;-6.40;99.90;;;;;;5055024;28;20186;-92
2022/12/15 06:27:09;;;;;;;26.53;11.70;;;-6.60;99.90;;;;;;5058040;28;20721;-92
2022/12/15 06:29:35;;;;;;;26.63;11.03;;;-6.60;99.90;;;;;;5054764;28;20183;-92
2022/12/15 06:32:01;;;;;;;22.10;10.90;;;-6.60;99.90;;;;;;5055455;28;20236;-92
2022/12/15 06:34:35;;;;;;;29.00;12.83;;;-6.50;99.90;;;;;;5055644;28;20174;-93
2022/12/15 06:37:07;;;;;;;26.80;12.00;;;-6.40;99.90;;;;;;5056996;28;20231;-93
2022/12/15 06:39:35;;;;;;;27.00;11.97;;;-6.40;99.90;;;;;;5056644;28;20434;-93
2022/12/15 06:42:03;;;;;;;21.27;11.23;;;-6.40;99.90;;;;;;5055603;28;20218;-93
2022/12/15 06:44:37;;;;;;;27.67;11.83;;;-6.30;99.90;;;;;;5058144;28;20650;-93
2022/12/15 06:47:37;;;;;;;24.60;12.17;;;-6.30;99.90;;;;;;5058687;28;20184;-92
2022/12/15 06:50:30;;;;;;;22.03;10.33;;;-6.40;99.90;;;;;;5052838;28;20234;-92
2022/12/15 06:56:28;;;;;;;24.50;11.80;;;-6.30;99.90;;;;;;5055472;28;20305;-92
2022/12/15 07:06:17;;;;;;;31.87;12.80;;;-5.90;99.90;;;;;;5012642;28;20183;-93
2022/12/15 07:08:59;;;;;;;34.03;14.43;;;-6.00;99.90;;;;;;4995258;28;20728;-92
2022/12/15 07:11:51;;;;;;;29.53;14.33;;;-6.00;99.90;;;;;;4996198;28;20239;-92
2022/12/15 07:14:24;;;;;;;31.57;14.67;;;-6.00;99.90;;;;;;5050758;28;20187;-92
2022/12/15 07:17:11;;;;;;;;;;;;;;;;;;;;;
2022/12/15 07:20:09;;;;;;;27.50;13.73;;;-5.90;99.90;;;;;;5053647;28;20186;-92
2022/12/15 07:23:44;;;;;;;30.33;13.13;;;-5.90;99.90;;;;;;5020362;28;20231;-92
2022/12/15 07:26:46;;;;;;;;;;;;;;;;;;;;;
2022/12/15 07:33:54;;;;;;;;;;;;;;;;;;;;;
2022/12/15 07:36:48;;;;;;;20.10;10.10;;;-6.20;99.90;;;;;;5054479;28;20220;-92
2022/12/15 07:40:04;;;;;;;26.03;12.07;;;-6.10;99.90;;;;;;5055381;28;20191;-92
2022/12/15 07:43:47;;;;;;;;;;;;;;;;;;;;;
2022/12/15 07:47:21;;;;;;;30.27;13.40;;;-6.40;99.90;;;;;;5015080;28;20200;-92
2022/12/15 07:50:19;;;;;;;35.43;13.37;;;-6.20;99.90;;;;;;5014530;28;20334;-92
2022/12/15 07:53:05;;;;;;;31.20;14.60;;;-6.20;99.90;;;;;;4999534;28;20208;-92
2022/12/15 07:56:15;;;;;;;38.47;15.13;;;-6.20;99.90;;;;;;5025687;28;20229;-93
2022/12/15 07:59:32;;;;;;;32.87;14.97;;;-6.20;99.90;;;;;;4933725;29;20675;-92
2022/12/15 08:03:33;;;;;;;34.70;15.10;;;-6.00;99.90;;;;;;4957849;29;20207;-92
2022/12/15 08:06:18;;;;;;;28.60;13.17;;;-6.30;99.90;;;;;;4917227;29;20168;-93
2022/12/15 08:16:30;;;;;;;;;;;;;;;;;;;;;
2022/12/15 08:19:27;;;;;;;31.77;13.87;;;-6.00;99.90;;;;;;4900042;29;20184;-93
2022/12/15 08:22:16;;;;;;;26.43;12.60;;;-6.00;99.90;;;;;;4883568;29;20295;-92
2022/12/15 08:25:05;;;;;;;25.57;12.07;;;-6.00;99.90;;;;;;4874086;29;20186;-93
2022/12/15 08:27:57;;;;;;;28.53;11.47;;;-6.00;99.90;;;;;;4885264;29;20237;-92
2022/12/15 08:30:45;;;;;;;24.77;12.60;;;-6.00;99.90;;;;;;4921872;29;20770;-92
2022/12/15 08:33:10;;;;;;;27.93;12.80;;;-6.10;99.90;;;;;;5045756;22;20322;-75
2022/12/15 08:35:39;;;;;;;30.07;13.83;;;-6.00;99.90;;;;;;5054846;28;20628;-75
2022/12/15 08:38:04;;;;;;;32.13;13.23;;;-6.00;99.90;;;;;;5054794;28;20194;-75
2022/12/15 08:40:30;;;;;;;34.13;15.10;;;-6.00;99.90;;;;;;5053536;28;20172;-75
2022/12/15 08:42:55;;;;;;;32.90;14.57;;;-6.00;99.90;;;;;;5055010;28;20281;-75
2022/12/15 08:45:21;;;;;;;29.97;13.97;;;-6.00;99.90;;;;;;5069124;28;20164;-75
2022/12/15 08:47:46;;;;;;;27.30;13.20;;;-6.00;99.90;;;;;;5054703;28;20198;-75
2022/12/15 08:50:12;;;;;;;31.30;14.30;;;-5.90;99.90;;;;;;5070000;28;20230;-75
2022/12/15 08:52:40;;;;;;;29.73;14.93;;;-5.90;99.90;;;;;;5053367;28;20218;-75
2022/12/15 08:55:10;;;;;;;33.87;15.07;;;-5.90;99.90;;;;;;5055234;28;20525;-75
2022/12/15 08:57:36;;;;;;;31.83;15.83;;;-5.80;99.90;;;;;;5054429;28;20241;-75
2022/12/15 09:00:03;;;;;;;35.77;15.60;;;-5.70;99.90;;;;;;5055042;28;20512;-75
2022/12/15 09:02:29;;;;;;;31.90;16.00;;;-5.70;99.90;;;;;;5054722;28;20258;-74
2022/12/15 09:04:54;;;;;;;34.10;15.87;;;-5.60;99.90;;;;;;5054368;28;20229;-75
2022/12/15 09:07:20;;;;;;;31.50;15.23;;;-5.50;99.90;;;;;;5054313;28;20279;-75
2022/12/15 09:09:46;;;;;;;32.43;15.37;;;-5.40;99.90;;;;;;5054524;28;20687;-75
2022/12/15 09:12:12;;;;;;;36.17;16.57;;;-5.20;99.90;;;;;;5054251;28;20670;-75
2022/12/15 09:14:37;;;;;;;37.47;16.93;;;-5.20;99.90;;;;;;5054384;28;20176;-75
2022/12/15 09:17:03;;;;;;;34.17;17.93;;;-5.10;99.90;;;;;;5054058;28;20207;-75
2022/12/15 09:19:28;;;;;;;41.83;18.83;;;-5.00;99.90;;;;;;5054113;28;20207;-75
2022/12/15 09:21:54;;;;;;;41.53;19.10;;;-5.00;99.90;;;;;;5054300;28;20540;-75
2022/12/15 09:24:20;;;;;;;41.33;18.80;;;-4.90;99.90;;;;;;5054315;28;20176;-75
2022/12/15 09:26:45;;;;;;;36.63;18.23;;;-4.80;99.90;;;;;;5053970;28;20206;-76
2022/12/15 09:29:14;;;;;;;45.73;21.10;;;-4.70;99.90;;;;;;5054105;28;20179;-75
2022/12/15 09:31:39;;;;;;;50.57;22.07;;;-4.60;99.90;;;;;;5055149;28;20237;-75
2022/12/15 09:34:05;;;;;;;41.40;21.33;;;-4.50;99.90;;;;;;5074027;28;20171;-75
2022/12/15 09:36:31;;;;;;;46.17;21.97;;;-4.40;99.90;;;;;;5089240;28;20260;-75
2022/12/15 09:38:58;;;;;;;44.80;21.67;;;-4.40;99.90;;;;;;5073681;28;20185;-75
2022/12/15 09:41:26;;;;;;;48.87;23.03;;;-4.30;99.90;;;;;;5073658;28;20174;-75
2022/12/15 09:43:57;;;;;;;51.90;23.93;;;-4.20;99.90;;;;;;5073282;28;20277;-75
2022/12/15 09:46:33;;;;;;;56.57;23.73;;;-4.10;99.90;;;;;;5073288;28;20206;-75
2022/12/15 09:49:04;;;;;;;56.87;24.13;;;-4.10;99.90;;;;;;5073497;28;20209;-75
2022/12/15 09:51:37;;;;;;;43.20;21.93;;;-4.00;99.90;;;;;;5055436;28;20211;-75
2022/12/15 09:54:03;;;;;;;44.47;23.17;;;-3.90;99.90;;;;;;5055069;28;20175;-75
2022/12/15 09:56:41;;;;;;;50.50;23.60;;;-3.80;99.90;;;;;;5088410;28;20203;-75
2022/12/15 09:59:27;;;;;;;53.90;24.43;;;-3.80;99.90;;;;;;5073198;28;20634;-75
2022/12/15 10:01:57;;;;;;;48.73;23.00;;;-3.70;99.90;;;;;;5073155;28;20162;-75
2022/12/15 10:04:47;;;;;;;62.87;25.33;;;-3.60;99.90;;;;;;5088318;28;20175;-75
2022/12/15 10:07:21;;;;;;;56.07;25.67;;;-3.60;99.90;;;;;;5073060;28;20259;-74
2022/12/15 10:09:46;;;;;;;53.27;25.47;;;-3.50;99.90;;;;;;5072778;28;20169;-75
2022/12/15 10:12:19;;;;;;;54.47;26.17;;;-3.50;99.90;;;;;;5054740;28;20179;-75
2022/12/15 10:15:01;;;;;;;62.17;28.70;;;-3.40;99.90;;;;;;5072978;28;20163;-75
2022/12/15 10:17:40;;;;;;;47.67;24.63;;;-3.40;99.90;;;;;;5088849;28;20256;-75
2022/12/15 10:20:20;;;;;;;48.27;24.87;;;-3.30;99.90;;;;;;5072731;28;20163;-75
2022/12/15 10:22:46;;;;;;;53.57;25.97;;;-3.20;99.90;;;;;;5072830;28;20512;-75
2022/12/15 10:25:17;;;;;;;53.57;25.53;;;-3.20;99.90;;;;;;5054544;28;20561;-75
2022/12/15 10:27:55;;;;;;;53.03;27.13;;;-3.20;99.90;;;;;;5095142;28;20238;-78
2022/12/15 10:30:21;;;;;;;48.33;25.53;;;-3.10;99.90;;;;;;5071652;28;20170;-78
2022/12/15 10:33:19;;;;;;;51.57;25.00;;;-3.10;99.90;;;;;;5088868;28;20199;-78
2022/12/15 10:35:46;;;;;;;48.63;25.70;;;-3.00;99.90;;;;;;5048890;28;20237;-78
2022/12/15 10:38:33;;;;;;;58.87;28.23;;;-3.00;99.90;;;;;;5072971;28;20681;-78
2022/12/15 10:41:02;;;;;;;58.93;27.90;;;-3.00;99.90;;;;;;5055139;28;20258;-78
2022/12/15 10:43:43;;;;;;;52.10;28.80;;;-3.00;99.90;;;;;;5073240;28;20171;-78
2022/12/15 10:46:17;;;;;;;49.50;26.07;;;-2.90;99.90;;;;;;5073061;28;20178;-78
2022/12/15 10:48:48;;;;;;;61.43;27.83;;;-2.80;99.90;;;;;;5073099;28;20165;-79
2022/12/15 10:51:26;;;;;;;49.07;25.57;;;-2.80;99.90;;;;;;5073130;28;20246;-78
2022/12/15 10:53:59;;;;;;;65.80;28.73;;;-2.80;99.90;;;;;;5089506;28;20171;-78
2022/12/15 10:56:26;;;;;;;56.80;27.57;;;-2.80;99.90;;;;;;5073112;28;20669;-79
2022/12/15 10:58:55;;;;;;;60.47;26.63;;;-2.80;99.90;;;;;;5055127;28;20171;-78
2022/12/15 11:01:33;;;;;;;52.97;26.87;;;-2.60;99.90;;;;;;5072922;28;20264;-78
2022/12/15 11:03:58;;;;;;;55.43;26.97;;;-2.70;99.90;;;;;;5073264;28;20234;-78
2022/12/15 11:06:27;;;;;;;64.77;28.60;;;-2.60;99.90;;;;;;5073328;28;20715;-79
2022/12/15 11:08:56;;;;;;;52.90;27.53;;;-2.60;99.90;;;;;;5075612;28;20167;-78
2022/12/15 11:14:19;;;;;;;53.70;27.33;;;-2.60;99.90;;;;;;5077224;28;20656;-78
2022/12/15 11:16:54;;;;;;;52.50;26.07;;;-2.60;99.90;;;;;;5058638;28;20411;-78
2022/12/15 11:19:35;;;;;;;57.03;26.87;;;-2.60;99.90;;;;;;5059699;28;20592;-78
2022/12/15 11:22:17;;;;;;;53.03;28.00;;;-2.50;99.90;;;;;;5076678;28;20230;-78
2022/12/15 11:24:51;;;;;;;54.57;27.13;;;-2.50;99.90;;;;;;5077043;28;20626;-78
2022/12/15 11:27:32;;;;;;;57.63;28.20;;;-2.50;99.90;;;;;;5076677;28;20218;-78
2022/12/15 11:30:14;;;;;;;57.67;27.77;;;-2.50;99.90;;;;;;5076703;28;20260;-78
2022/12/15 11:32:47;;;;;;;59.40;29.30;;;-2.50;99.90;;;;;;5058340;28;20209;-78
2022/12/15 11:35:14;;;;;;;61.30;30.17;;;-2.40;99.90;;;;;;5058667;28;20602;-78
2022/12/15 11:37:44;;;;;;;62.00;28.70;;;-2.40;99.90;;;;;;5076471;28;20214;-78
2022/12/15 11:40:38;;;;;;;56.40;28.30;;;-2.40;99.90;;;;;;5076101;28;20177;-76
2022/12/15 11:43:31;;;;;;;57.63;29.43;;;-2.40;99.90;;;;;;5075799;28;20164;-76
2022/12/15 11:46:21;;;;;;;56.90;28.30;;;-2.40;99.90;;;;;;5092344;28;20166;-78
2022/12/15 11:48:59;;;;;;;57.30;29.27;;;-2.40;99.90;;;;;;5079380;28;20156;-78
2022/12/15 11:51:37;;;;;;;60.00;30.50;;;-2.40;99.90;;;;;;5060858;28;20175;-78
2022/12/15 11:54:25;;;;;;;58.77;30.07;;;-2.30;99.90;;;;;;5079604;28;20159;-78
2022/12/15 11:57:06;;;;;;;63.77;29.33;;;-2.30;99.90;;;;;;5095928;28;20214;-78
2022/12/15 11:59:57;;;;;;;54.03;28.17;;;-2.30;99.90;;;;;;5063037;28;20168;-78
2022/12/15 12:02:54;;;;;;;57.93;28.47;;;-2.30;99.90;;;;;;5080237;28;20157;-78
2022/12/15 12:05:53;;;;;;;59.80;30.10;;;-2.10;99.90;;;;;;5081460;28;20163;-78
2022/12/15 12:08:39;;;;;;;68.00;30.00;;;-2.10;99.90;;;;;;5083752;28;20317;-78
2022/12/15 12:11:12;;;;;;;65.80;30.77;;;-2.10;99.90;;;;;;5081254;28;20153;-78
2022/12/15 12:14:01;;;;;;;62.43;30.97;;;-2.10;99.90;;;;;;5060557;28;20179;-78
2022/12/15 12:16:29;;;;;;;62.87;27.87;;;-2.10;99.90;;;;;;5070148;28;20242;-79
2022/12/15 12:19:12;;;;;;;56.37;30.47;;;-2.10;99.90;;;;;;5077931;28;20168;-78
2022/12/15 12:21:47;;;;;;;64.80;30.67;;;-2.10;99.90;;;;;;5078713;28;20151;-78
2022/12/15 12:24:21;;;;;;;61.70;29.80;;;-2.00;99.90;;;;;;5060161;28;20204;-78
2022/12/15 12:27:16;;;;;;;57.87;30.70;;;-2.00;99.90;;;;;;5078910;28;20222;-78
2022/12/15 12:29:50;;;;;;;63.67;30.93;;;-2.00;99.90;;;;;;5078426;28;20613;-78
2022/12/15 12:32:27;;;;;;;62.83;29.43;;;-2.00;99.90;;;;;;5060424;28;20225;-78
2022/12/15 12:35:13;;;;;;;59.90;29.93;;;-2.00;99.90;;;;;;5093353;28;20186;-78
2022/12/15 12:37:55;;;;;;;63.40;29.40;;;-2.00;99.90;;;;;;5077371;28;20688;-78
2022/12/15 12:40:27;;;;;;;60.37;30.20;;;-2.00;99.90;;;;;;5059497;28;20210;-78
2022/12/15 12:42:58;;;;;;;60.70;29.83;;;-2.00;99.90;;;;;;5077658;28;20162;-78
2022/12/15 12:45:31;;;;;;;58.00;29.97;;;-2.00;99.90;;;;;;5059502;28;20168;-78
2022/12/15 12:48:02;;;;;;;61.80;32.23;;;-1.90;99.90;;;;;;5077901;28;20240;-79
2022/12/15 12:50:29;;;;;;;61.33;30.00;;;-1.90;99.90;;;;;;5075751;28;20619;-78
2022/12/15 12:52:59;;;;;;;69.00;30.87;;;-1.80;99.90;;;;;;5074867;28;20175;-77
2022/12/15 12:55:39;;;;;;;65.47;31.23;;;-1.80;99.90;;;;;;5056969;28;20203;-78
2022/12/15 12:58:36;;;;;;;59.97;30.40;;;-1.90;99.90;;;;;;5056865;28;20195;-78
2022/12/15 13:01:23;;;;;;;65.10;31.30;;;-1.90;99.90;;;;;;5074977;28;20181;-77
2022/12/15 13:04:05;;;;;;;70.70;31.17;;;-1.80;99.90;;;;;;5075161;28;20168;-78
2022/12/15 13:06:33;;;;;;;67.40;31.20;;;-1.80;99.90;;;;;;5075017;28;20500;-78
2022/12/15 13:09:19;;;;;;;65.20;31.57;;;-1.70;99.90;;;;;;5090630;28;20208;-78
2022/12/15 13:11:56;;;;;;;77.50;34.87;;;-1.70;99.90;;;;;;5074841;28;20180;-77
2022/12/15 13:14:27;;;;;;;65.83;32.40;;;-1.60;99.90;;;;;;5056818;28;20553;-78
2022/12/15 13:17:23;;;;;;;60.33;30.03;;;-1.60;99.90;;;;;;5074425;28;20206;-78
2022/12/15 13:20:01;;;;;;;69.83;32.10;;;-1.50;99.90;;;;;;5063476;28;20184;-77
2022/12/15 13:22:35;;;;;;;66.40;32.20;;;-1.60;99.90;;;;;;5089902;28;20174;-77
2022/12/15 13:25:21;;;;;;;64.00;31.33;;;-1.50;99.90;;;;;;5074570;28;20196;-77
2022/12/15 13:27:50;;;;;;;63.23;31.27;;;-1.50;99.90;;;;;;5074050;28;20738;-77
2022/12/15 13:30:16;;;;;;;66.33;33.60;;;-1.50;99.90;;;;;;5055763;28;20174;-78
2022/12/15 13:32:43;;;;;;;65.03;31.77;;;-1.50;99.90;;;;;;5074249;28;20196;-78
2022/12/15 13:35:12;;;;;;;63.83;33.70;;;-1.60;99.90;;;;;;5074202;28;20187;-77
2022/12/15 13:38:01;;;;;;;58.33;30.90;;;-1.50;99.90;;;;;;5089978;28;20246;-77
2022/12/15 13:40:35;;;;;;;64.57;31.60;;;-1.60;99.90;;;;;;5075055;28;20158;-78
2022/12/15 13:43:03;;;;;;;67.37;32.67;;;-1.50;99.90;;;;;;5074429;28;20686;-77
2022/12/15 13:45:35;;;;;;;65.93;32.50;;;-1.50;99.90;;;;;;5089779;28;20202;-78
2022/12/15 13:48:24;;;;;;;58.53;32.07;;;-1.60;99.90;;;;;;5073737;28;20180;-77
2022/12/15 13:51:20;;;;;;;58.37;29.53;;;-1.60;99.90;;;;;;5073217;28;20548;-77
2022/12/15 13:53:51;;;;;;;53.93;28.30;;;-1.60;99.90;;;;;;5073928;28;20210;-77
2022/12/15 13:56:36;;;;;;;56.70;28.97;;;-1.60;99.90;;;;;;5074137;28;20183;-77
2022/12/15 13:59:15;;;;;;;63.17;30.00;;;-1.60;99.90;;;;;;5074114;28;20296;-77
2022/12/15 14:01:49;;;;;;;55.67;28.97;;;-1.60;99.90;;;;;;5056006;28;20593;-78
2022/12/15 14:04:15;;;;;;;64.17;31.77;;;-1.70;99.90;;;;;;5089543;28;20176;-77
2022/12/15 14:06:56;;;;;;;60.80;29.57;;;-1.70;99.90;;;;;;5055885;28;20197;-77
2022/12/15 14:09:42;;;;;;;60.90;30.27;;;-1.70;99.90;;;;;;5074030;28;20173;-78
2022/12/15 14:12:12;;;;;;;53.23;26.90;;;-1.70;99.90;;;;;;5076456;28;20341;-79
2022/12/15 14:14:44;;;;;;;56.60;28.03;;;-1.70;99.90;;;;;;5059691;28;20757;-77
2022/12/15 14:17:14;;;;;;;56.03;29.00;;;-1.80;99.90;;;;;;5061542;28;20248;-78
2022/12/15 14:19:45;;;;;;;56.93;28.93;;;-1.80;99.90;;;;;;5085217;28;20180;-78
2022/12/15 14:22:22;;;;;;;58.60;29.00;;;-1.80;99.90;;;;;;5085323;28;20248;-77
2022/12/15 14:24:50;;;;;;;61.27;30.10;;;-1.80;99.90;;;;;;5085157;28;20162;-77
2022/12/15 14:27:23;;;;;;;52.13;28.83;;;-1.90;99.90;;;;;;5082944;28;20189;-78
2022/12/15 14:29:49;;;;;;;64.93;29.30;;;-1.90;99.90;;;;;;5055835;28;20555;-77
2022/12/15 14:32:15;;;;;;;52.70;28.20;;;-1.90;99.90;;;;;;5073531;28;20201;-78
2022/12/15 14:34:42;;;;;;;61.73;27.70;;;-1.90;99.90;;;;;;5055674;28;20195;-79
2022/12/15 14:37:17;;;;;;;53.40;26.33;;;-2.00;99.90;;;;;;5055639;28;20206;-78
2022/12/15 14:39:46;;;;;;;53.53;27.93;;;-2.00;99.90;;;;;;5055451;28;20164;-77
2022/12/15 14:42:22;;;;;;;55.07;27.20;;;-2.00;99.90;;;;;;5073388;28;20171;-77
2022/12/15 14:44:48;;;;;;;49.80;26.47;;;-2.10;99.90;;;;;;5073197;28;20523;-77
2022/12/15 14:47:27;;;;;;;53.27;27.27;;;-2.10;99.90;;;;;;5073181;28;20267;-77
2022/12/15 14:49:56;;;;;;;54.13;29.07;;;-2.10;99.90;;;;;;5073120;28;20627;-77
2022/12/15 14:52:27;;;;;;;50.10;25.97;;;-2.10;99.90;;;;;;5073729;28;20641;-78
2022/12/15 14:54:56;;;;;;;52.10;26.50;;;-2.20;99.90;;;;;;5073362;28;20177;-77
2022/12/15 14:57:39;;;;;;;47.73;25.67;;;-2.20;99.90;;;;;;5055346;28;20212;-77
2022/12/15 15:00:30;;;;;;;52.67;25.10;;;-2.30;99.90;;;;;;5055666;28;20320;-77
2022/12/15 15:03:14;;;;;;;50.67;25.70;;;-2.30;99.90;;;;;;5073686;28;20532;-77
2022/12/15 15:05:41;;;;;;;52.27;26.43;;;-2.30;99.90;;;;;;5073256;28;20204;-77
2022/12/15 15:08:14;;;;;;;52.60;27.03;;;-2.40;99.90;;;;;;5072504;28;20191;-77
2022/12/15 15:10:40;;;;;;;48.13;25.47;;;-2.40;99.90;;;;;;5072841;28;20349;-77
2022/12/15 15:13:16;;;;;;;48.87;24.33;;;-2.50;99.90;;;;;;5073089;28;20249;-77
2022/12/15 15:15:54;;;;;;;46.10;24.50;;;-2.50;99.90;;;;;;5072887;28;20166;-77
2022/12/15 15:18:26;;;;;;;49.57;26.27;;;-2.60;99.90;;;;;;5064129;28;20204;-78
2022/12/15 15:21:04;;;;;;;44.77;25.27;;;-2.60;99.90;;;;;;5054536;28;20172;-76
2022/12/15 15:23:31;;;;;;;48.57;25.40;;;-2.70;99.90;;;;;;5054634;28;20176;-77
2022/12/15 15:26:03;;;;;;;48.23;23.90;;;-2.80;99.90;;;;;;5072599;28;20169;-77
2022/12/15 15:28:35;;;;;;;45.47;24.33;;;-2.80;99.90;;;;;;5072316;28;20192;-77
2022/12/15 15:31:21;;;;;;;50.67;24.73;;;-2.90;99.90;;;;;;5072582;28;20621;-77
2022/12/15 15:33:46;;;;;;;48.80;25.00;;;-2.90;99.90;;;;;;5072192;28;20190;-77
2022/12/15 15:36:12;;;;;;;47.40;25.57;;;-3.00;99.90;;;;;;5072258;28;20203;-76
2022/12/15 15:38:40;;;;;;;48.60;23.93;;;-3.10;99.90;;;;;;5072173;28;20164;-77
2022/12/15 15:41:18;;;;;;;51.47;24.97;;;-3.10;99.90;;;;;;5054283;28;20647;-77
2022/12/15 15:43:44;;;;;;;50.90;25.33;;;-3.20;99.90;;;;;;5068670;28;20202;-78
2022/12/15 15:46:14;;;;;;;49.97;24.73;;;-3.20;99.90;;;;;;5060619;28;20187;-78
2022/12/15 15:48:57;;;;;;;48.07;23.57;;;-3.20;99.90;;;;;;5046938;28;20179;-77
2022/12/15 15:51:24;;;;;;;46.40;22.90;;;-3.30;99.90;;;;;;5070925;28;20169;-76
2022/12/15 15:53:50;;;;;;;55.23;24.37;;;-3.30;99.90;;;;;;5053439;28;20643;-76
2022/12/15 15:56:16;;;;;;;47.97;24.27;;;-3.40;99.90;;;;;;5075556;28;20252;-78
2022/12/15 15:58:45;;;;;;;47.73;25.03;;;-3.40;99.90;;;;;;5073897;28;20605;-79